sensor_id;sensor_type;location;lat;lon;timestamp;temperature;humidity
74171;DHT22;62526;50.948;6.590;2024-01-25T00:01:43;11.90;99.90
74171;DHT22;62526;50.948;6.590;2024-01-25T00:04:10;11.90;99.90
74171;DHT22;62526;50.948;6.590;2024-01-25T00:06:37;11.60;99.90
74171;DHT22;62526;50.948;6.590;2024-01-25T00:09:04;11.30;99.90
74171;DHT22;62526;50.948;6.590;2024-01-25T00:11:31;11.30;99.90
74171;DHT22;62526;50.948;6.590;2024-01-25T00:13:58;11.60;99.90
74171;DHT22;62526;50.948;6.590;2024-01-25T00:16:26;11.80;99.90
74171;DHT22;62526;50.948;6.590;2024-01-25T00:18:53;11.70;99.90
74171;DHT22;62526;50.948;6.590;2024-01-25T00:21:20;11.80;99.90
74171;DHT22;62526;50.948;6.590;2024-01-25T00:23:46;11.70;99.90
74171;DHT22;62526;50.948;6.590;2024-01-25T00:26:13;11.50;99.90
74171;DHT22;62526;50.948;6.590;2024-01-25T00:28:40;11.10;99.90
74171;DHT22;62526;50.948;6.590;2024-01-25T00:31:07;11.20;99.90
74171;DHT22;62526;50.948;6.590;2024-01-25T00:33:34;11.40;99.90
74171;DHT22;62526;50.948;6.590;2024-01-25T00:36:02;11.50;99.90
74171;DHT22;62526;50.948;6.590;2024-01-25T00:38:29;11.80;99.90
74171;DHT22;62526;50.948;6.590;2024-01-25T00:40:56;11.90;99.90
74171;DHT22;62526;50.948;6.590;2024-01-25T00:43:24;11.80;99.90
74171;DHT22;62526;50.948;6.590;2024-01-25T00:45:52;11.70;99.90
74171;DHT22;62526;50.948;6.590;2024-01-25T00:48:21;11.50;99.90
74171;DHT22;62526;50.948;6.590;2024-01-25T00:50:48;11.50;99.90
74171;DHT22;62526;50.948;6.590;2024-01-25T00:53:15;11.70;99.90
74171;DHT22;62526;50.948;6.590;2024-01-25T00:55:42;11.50;99.90
74171;DHT22;62526;50.948;6.590;2024-01-25T00:58:09;11.40;99.90
74171;DHT22;62526;50.948;6.590;2024-01-25T01:00:37;11.00;99.90
74171;DHT22;62526;50.948;6.590;2024-01-25T01:03:04;11.20;99.90
74171;DHT22;62526;50.948;6.590;2024-01-25T01:05:32;11.50;99.90
74171;DHT22;62526;50.948;6.590;2024-01-25T01:08:00;11.60;99.90
74171;DHT22;62526;50.948;6.590;2024-01-25T01:10:27;11.70;99.90
74171;DHT22;62526;50.948;6.590;2024-01-25T01:12:55;11.80;99.90
74171;DHT22;62526;50.948;6.590;2024-01-25T01:15:21;11.40;99.90
74171;DHT22;62526;50.948;6.590;2024-01-25T01:17:49;11.40;99.90
74171;DHT22;62526;50.948;6.590;2024-01-25T01:20:15;11.60;99.90
74171;DHT22;62526;50.948;6.590;2024-01-25T01:22:42;11.80;99.90
74171;DHT22;62526;50.948;6.590;2024-01-25T01:25:10;11.90;99.90
74171;DHT22;62526;50.948;6.590;2024-01-25T01:27:37;11.90;99.90
74171;DHT22;62526;50.948;6.590;2024-01-25T01:30:05;11.40;99.90
74171;DHT22;62526;50.948;6.590;2024-01-25T01:32:33;11.30;99.90
74171;DHT22;62526;50.948;6.590;2024-01-25T01:34:59;11.20;99.90
74171;DHT22;62526;50.948;6.590;2024-01-25T01:37:27;11.30;99.90
74171;DHT22;62526;50.948;6.590;2024-01-25T01:39:54;11.30;99.90
74171;DHT22;62526;50.948;6.590;2024-01-25T01:42:21;11.20;99.90
74171;DHT22;62526;50.948;6.590;2024-01-25T01:44:49;11.30;99.90
74171;DHT22;62526;50.948;6.590;2024-01-25T01:47:16;11.40;99.90
74171;DHT22;62526;50.948;6.590;2024-01-25T01:49:43;11.00;99.90
74171;DHT22;62526;50.948;6.590;2024-01-25T01:52:10;10.90;99.90
74171;DHT22;62526;50.948;6.590;2024-01-25T01:54:37;10.90;99.90
74171;DHT22;62526;50.948;6.590;2024-01-25T01:57:04;11.00;99.90
74171;DHT22;62526;50.948;6.590;2024-01-25T01:59:31;10.80;99.90
74171;DHT22;62526;50.948;6.590;2024-01-25T02:01:57;10.90;99.90
74171;DHT22;62526;50.948;6.590;2024-01-25T02:04:24;11.10;99.90
74171;DHT22;62526;50.948;6.590;2024-01-25T02:06:51;11.10;99.90
74171;DHT22;62526;50.948;6.590;2024-01-25T02:09:17;10.90;99.90
74171;DHT22;62526;50.948;6.590;2024-01-25T02:11:44;10.80;99.90
74171;DHT22;62526;50.948;6.590;2024-01-25T02:14:11;10.80;99.90
74171;DHT22;62526;50.948;6.590;2024-01-25T02:16:38;11.00;99.90
74171;DHT22;62526;50.948;6.590;2024-01-25T02:19:06;11.10;99.90
74171;DHT22;62526;50.948;6.590;2024-01-25T02:21:32;11.30;99.90
74171;DHT22;62526;50.948;6.590;2024-01-25T02:24:00;11.30;99.90
74171;DHT22;62526;50.948;6.590;2024-01-25T02:26:27;11.00;99.90
74171;DHT22;62526;50.948;6.590;2024-01-25T02:28:54;11.00;99.90
74171;DHT22;62526;50.948;6.590;2024-01-25T02:31:21;11.00;99.90
74171;DHT22;62526;50.948;6.590;2024-01-25T02:33:48;10.90;99.90
74171;DHT22;62526;50.948;6.590;2024-01-25T02:36:15;11.10;99.90
74171;DHT22;62526;50.948;6.590;2024-01-25T02:38:42;11.30;99.90
74171;DHT22;62526;50.948;6.590;2024-01-25T02:41:09;11.60;99.90
74171;DHT22;62526;50.948;6.590;2024-01-25T02:43:36;11.80;99.90
74171;DHT22;62526;50.948;6.590;2024-01-25T02:46:03;12.00;99.90
74171;DHT22;62526;50.948;6.590;2024-01-25T02:48:31;11.70;99.90
74171;DHT22;62526;50.948;6.590;2024-01-25T02:50:58;11.60;99.90
74171;DHT22;62526;50.948;6.590;2024-01-25T02:53:25;11.70;99.90
74171;DHT22;62526;50.948;6.590;2024-01-25T02:55:52;11.50;99.90
74171;DHT22;62526;50.948;6.590;2024-01-25T02:58:19;11.30;99.90
74171;DHT22;62526;50.948;6.590;2024-01-25T03:00:47;11.30;99.90
74171;DHT22;62526;50.948;6.590;2024-01-25T03:03:13;11.50;99.90
74171;DHT22;62526;50.948;6.590;2024-01-25T03:05:41;11.60;99.90
74171;DHT22;62526;50.948;6.590;2024-01-25T03:08:08;11.70;99.90
74171;DHT22;62526;50.948;6.590;2024-01-25T03:10:35;11.70;99.90
74171;DHT22;62526;50.948;6.590;2024-01-25T03:13:01;11.60;99.90
74171;DHT22;62526;50.948;6.590;2024-01-25T03:15:28;11.60;99.90
74171;DHT22;62526;50.948;6.590;2024-01-25T03:17:55;11.60;99.90
74171;DHT22;62526;50.948;6.590;2024-01-25T03:20:22;11.50;99.90
74171;DHT22;62526;50.948;6.590;2024-01-25T03:22:49;11.20;99.90
74171;DHT22;62526;50.948;6.590;2024-01-25T03:25:16;11.10;99.90
74171;DHT22;62526;50.948;6.590;2024-01-25T03:27:44;10.90;99.90
74171;DHT22;62526;50.948;6.590;2024-01-25T03:30:11;10.70;99.90
74171;DHT22;62526;50.948;6.590;2024-01-25T03:32:38;10.50;99.90
74171;DHT22;62526;50.948;6.590;2024-01-25T03:35:05;10.40;99.90
74171;DHT22;62526;50.948;6.590;2024-01-25T03:37:33;10.40;99.90
74171;DHT22;62526;50.948;6.590;2024-01-25T03:40:01;10.60;99.90
74171;DHT22;62526;50.948;6.590;2024-01-25T03:42:28;10.70;99.90
74171;DHT22;62526;50.948;6.590;2024-01-25T03:44:55;10.70;99.90
74171;DHT22;62526;50.948;6.590;2024-01-25T03:47:22;10.70;99.90
74171;DHT22;62526;50.948;6.590;2024-01-25T03:49:50;10.50;99.90
74171;DHT22;62526;50.948;6.590;2024-01-25T03:52:17;10.80;99.90
74171;DHT22;62526;50.948;6.590;2024-01-25T03:54:44;11.00;99.90
74171;DHT22;62526;50.948;6.590;2024-01-25T03:57:11;11.10;99.90
74171;DHT22;62526;50.948;6.590;2024-01-25T03:59:37;11.20;99.90
74171;DHT22;62526;50.948;6.590;2024-01-25T04:02:05;11.10;99.90
74171;DHT22;62526;50.948;6.590;2024-01-25T04:04:32;10.90;99.90
74171;DHT22;62526;50.948;6.590;2024-01-25T04:07:00;10.70;99.90
74171;DHT22;62526;50.948;6.590;2024-01-25T04:09:27;10.60;99.90
74171;DHT22;62526;50.948;6.590;2024-01-25T04:11:54;10.70;99.90
74171;DHT22;62526;50.948;6.590;2024-01-25T04:14:20;10.60;99.90
74171;DHT22;62526;50.948;6.590;2024-01-25T04:16:47;10.80;99.90
74171;DHT22;62526;50.948;6.590;2024-01-25T04:19:14;10.80;99.90
74171;DHT22;62526;50.948;6.590;2024-01-25T04:21:41;10.90;99.90
74171;DHT22;62526;50.948;6.590;2024-01-25T04:24:07;10.90;99.90
74171;DHT22;62526;50.948;6.590;2024-01-25T04:26:35;10.70;99.90
74171;DHT22;62526;50.948;6.590;2024-01-25T04:29:02;10.80;99.90
74171;DHT22;62526;50.948;6.590;2024-01-25T04:31:30;10.80;99.90
74171;DHT22;62526;50.948;6.590;2024-01-25T04:33:56;10.70;99.90
74171;DHT22;62526;50.948;6.590;2024-01-25T04:36:23;10.70;99.90
74171;DHT22;62526;50.948;6.590;2024-01-25T04:38:53;10.60;99.90
74171;DHT22;62526;50.948;6.590;2024-01-25T04:41:20;10.70;99.90
74171;DHT22;62526;50.948;6.590;2024-01-25T04:43:47;10.80;99.90
74171;DHT22;62526;50.948;6.590;2024-01-25T04:46:14;10.90;99.90
74171;DHT22;62526;50.948;6.590;2024-01-25T04:48:41;11.00;99.90
74171;DHT22;62526;50.948;6.590;2024-01-25T04:51:08;11.00;99.90
74171;DHT22;62526;50.948;6.590;2024-01-25T04:53:35;10.00;99.90
74171;DHT22;62526;50.948;6.590;2024-01-25T04:56:02;11.00;99.90
74171;DHT22;62526;50.948;6.590;2024-01-25T04:58:29;11.00;99.90
74171;DHT22;62526;50.948;6.590;2024-01-25T05:00:56;11.00;99.90
74171;DHT22;62526;50.948;6.590;2024-01-25T05:03:22;10.90;99.90
74171;DHT22;62526;50.948;6.590;2024-01-25T05:05:49;10.90;99.90
74171;DHT22;62526;50.948;6.590;2024-01-25T05:08:16;10.80;99.90
74171;DHT22;62526;50.948;6.590;2024-01-25T05:10:43;10.60;99.90
74171;DHT22;62526;50.948;6.590;2024-01-25T05:13:10;10.50;99.90
74171;DHT22;62526;50.948;6.590;2024-01-25T05:15:37;10.50;99.90
74171;DHT22;62526;50.948;6.590;2024-01-25T05:18:05;10.50;99.90
74171;DHT22;62526;50.948;6.590;2024-01-25T05:20:32;10.40;99.90
74171;DHT22;62526;50.948;6.590;2024-01-25T05:23:00;10.40;99.90
74171;DHT22;62526;50.948;6.590;2024-01-25T05:25:26;10.40;99.90
74171;DHT22;62526;50.948;6.590;2024-01-25T05:27:54;10.40;99.90
74171;DHT22;62526;50.948;6.590;2024-01-25T05:30:22;10.50;99.90
74171;DHT22;62526;50.948;6.590;2024-01-25T05:32:48;10.60;99.90
74171;DHT22;62526;50.948;6.590;2024-01-25T05:35:15;10.50;99.90
74171;DHT22;62526;50.948;6.590;2024-01-25T05:37:43;10.30;99.90
74171;DHT22;62526;50.948;6.590;2024-01-25T05:40:11;10.20;99.90
74171;DHT22;62526;50.948;6.590;2024-01-25T05:42:38;10.00;99.90
74171;DHT22;62526;50.948;6.590;2024-01-25T05:45:05;10.00;99.90
74171;DHT22;62526;50.948;6.590;2024-01-25T05:47:32;10.10;99.90
74171;DHT22;62526;50.948;6.590;2024-01-25T05:50:00;10.10;99.90
74171;DHT22;62526;50.948;6.590;2024-01-25T05:52:26;10.10;99.90
74171;DHT22;62526;50.948;6.590;2024-01-25T05:54:54;10.20;99.90
74171;DHT22;62526;50.948;6.590;2024-01-25T05:57:21;10.20;99.90
74171;DHT22;62526;50.948;6.590;2024-01-25T05:59:49;10.20;99.90
74171;DHT22;62526;50.948;6.590;2024-01-25T06:02:15;10.20;99.90
74171;DHT22;62526;50.948;6.590;2024-01-25T06:04:43;10.20;99.90
74171;DHT22;62526;50.948;6.590;2024-01-25T06:07:09;10.30;99.90
74171;DHT22;62526;50.948;6.590;2024-01-25T06:09:38;10.30;99.90
74171;DHT22;62526;50.948;6.590;2024-01-25T06:12:05;10.30;99.90
74171;DHT22;62526;50.948;6.590;2024-01-25T06:14:32;10.30;99.90
74171;DHT22;62526;50.948;6.590;2024-01-25T06:16:59;10.30;99.90
74171;DHT22;62526;50.948;6.590;2024-01-25T06:19:26;10.30;99.90
74171;DHT22;62526;50.948;6.590;2024-01-25T06:21:54;10.40;99.90
74171;DHT22;62526;50.948;6.590;2024-01-25T06:24:21;10.40;99.90
74171;DHT22;62526;50.948;6.590;2024-01-25T06:26:48;10.50;99.90
74171;DHT22;62526;50.948;6.590;2024-01-25T06:29:15;10.60;99.90
74171;DHT22;62526;50.948;6.590;2024-01-25T06:31:42;10.60;99.90
74171;DHT22;62526;50.948;6.590;2024-01-25T06:34:09;10.60;99.90
74171;DHT22;62526;50.948;6.590;2024-01-25T06:36:36;10.60;99.90
74171;DHT22;62526;50.948;6.590;2024-01-25T06:39:03;10.60;99.90
74171;DHT22;62526;50.948;6.590;2024-01-25T06:41:32;10.60;99.90
74171;DHT22;62526;50.948;6.590;2024-01-25T06:43:58;10.50;99.90
74171;DHT22;62526;50.948;6.590;2024-01-25T06:46:25;10.50;99.90
74171;DHT22;62526;50.948;6.590;2024-01-25T06:48:52;10.50;99.90
74171;DHT22;62526;50.948;6.590;2024-01-25T06:51:27;10.40;99.90
74171;DHT22;62526;50.948;6.590;2024-01-25T06:53:55;10.30;99.90
74171;DHT22;62526;50.948;6.590;2024-01-25T06:56:22;10.30;99.90
74171;DHT22;62526;50.948;6.590;2024-01-25T06:58:49;10.30;99.90
74171;DHT22;62526;50.948;6.590;2024-01-25T07:01:21;10.30;99.90
74171;DHT22;62526;50.948;6.590;2024-01-25T07:03:47;10.40;99.90
74171;DHT22;62526;50.948;6.590;2024-01-25T07:06:15;10.40;99.90
74171;DHT22;62526;50.948;6.590;2024-01-25T07:08:42;10.30;99.90
74171;DHT22;62526;50.948;6.590;2024-01-25T07:11:09;10.30;99.90
74171;DHT22;62526;50.948;6.590;2024-01-25T07:13:36;10.20;99.90
74171;DHT22;62526;50.948;6.590;2024-01-25T07:16:04;9.60;99.90
74171;DHT22;62526;50.948;6.590;2024-01-25T07:18:31;10.10;99.90
74171;DHT22;62526;50.948;6.590;2024-01-25T07:20:58;10.10;99.90
74171;DHT22;62526;50.948;6.590;2024-01-25T07:23:25;10.00;99.90
74171;DHT22;62526;50.948;6.590;2024-01-25T07:25:52;10.00;99.90
74171;DHT22;62526;50.948;6.590;2024-01-25T07:28:20;10.20;99.90
74171;DHT22;62526;50.948;6.590;2024-01-25T07:30:47;10.20;99.90
74171;DHT22;62526;50.948;6.590;2024-01-25T07:33:13;10.30;99.90
74171;DHT22;62526;50.948;6.590;2024-01-25T07:35:41;10.30;99.90
74171;DHT22;62526;50.948;6.590;2024-01-25T07:38:08;10.30;99.90
74171;DHT22;62526;50.948;6.590;2024-01-25T07:40:35;10.40;99.90
74171;DHT22;62526;50.948;6.590;2024-01-25T07:43:02;10.50;99.90
74171;DHT22;62526;50.948;6.590;2024-01-25T07:45:29;10.50;99.90
74171;DHT22;62526;50.948;6.590;2024-01-25T07:47:55;10.50;99.90
74171;DHT22;62526;50.948;6.590;2024-01-25T07:50:23;10.60;99.90
74171;DHT22;62526;50.948;6.590;2024-01-25T07:52:50;10.60;99.90
74171;DHT22;62526;50.948;6.590;2024-01-25T07:55:17;10.50;99.90
74171;DHT22;62526;50.948;6.590;2024-01-25T07:57:44;10.40;99.90
74171;DHT22;62526;50.948;6.590;2024-01-25T08:00:11;10.50;99.90
74171;DHT22;62526;50.948;6.590;2024-01-25T08:02:38;10.40;99.90
74171;DHT22;62526;50.948;6.590;2024-01-25T08:05:06;10.50;99.90
74171;DHT22;62526;50.948;6.590;2024-01-25T08:07:33;10.60;99.90
74171;DHT22;62526;50.948;6.590;2024-01-25T08:10:00;10.60;99.90
74171;DHT22;62526;50.948;6.590;2024-01-25T08:12:26;10.70;99.90
74171;DHT22;62526;50.948;6.590;2024-01-25T08:14:54;10.80;99.90
74171;DHT22;62526;50.948;6.590;2024-01-25T08:17:21;10.80;99.90
74171;DHT22;62526;50.948;6.590;2024-01-25T08:19:48;10.80;99.90
74171;DHT22;62526;50.948;6.590;2024-01-25T08:22:15;10.90;99.90
74171;DHT22;62526;50.948;6.590;2024-01-25T08:24:43;10.90;99.90
74171;DHT22;62526;50.948;6.590;2024-01-25T08:27:11;10.90;99.90
74171;DHT22;62526;50.948;6.590;2024-01-25T08:29:38;11.10;99.90
74171;DHT22;62526;50.948;6.590;2024-01-25T08:32:05;11.20;99.90
74171;DHT22;62526;50.948;6.590;2024-01-25T08:34:32;11.20;99.90
74171;DHT22;62526;50.948;6.590;2024-01-25T08:36:59;11.10;99.90
74171;DHT22;62526;50.948;6.590;2024-01-25T08:39:26;11.00;99.90
74171;DHT22;62526;50.948;6.590;2024-01-25T08:41:53;10.90;99.90
74171;DHT22;62526;50.948;6.590;2024-01-25T08:44:23;11.00;99.90
74171;DHT22;62526;50.948;6.590;2024-01-25T08:46:50;11.10;99.90
74171;DHT22;62526;50.948;6.590;2024-01-25T08:49:18;11.20;99.90
74171;DHT22;62526;50.948;6.590;2024-01-25T08:51:45;11.20;99.90
74171;DHT22;62526;50.948;6.590;2024-01-25T08:54:12;11.30;99.90
74171;DHT22;62526;50.948;6.590;2024-01-25T08:56:39;11.40;99.90
74171;DHT22;62526;50.948;6.590;2024-01-25T08:59:06;11.40;99.90
74171;DHT22;62526;50.948;6.590;2024-01-25T09:01:32;11.40;99.90
74171;DHT22;62526;50.948;6.590;2024-01-25T09:03:59;11.50;99.90
74171;DHT22;62526;50.948;6.590;2024-01-25T09:06:27;11.50;99.90
74171;DHT22;62526;50.948;6.590;2024-01-25T09:08:54;11.50;99.90
74171;DHT22;62526;50.948;6.590;2024-01-25T09:11:21;11.50;99.90
74171;DHT22;62526;50.948;6.590;2024-01-25T09:13:47;11.50;99.90
74171;DHT22;62526;50.948;6.590;2024-01-25T09:16:15;11.40;99.90
74171;DHT22;62526;50.948;6.590;2024-01-25T09:18:41;11.50;99.90
74171;DHT22;62526;50.948;6.590;2024-01-25T09:21:08;11.50;99.90
74171;DHT22;62526;50.948;6.590;2024-01-25T09:23:35;11.60;99.90
74171;DHT22;62526;50.948;6.590;2024-01-25T09:26:02;11.50;99.90
74171;DHT22;62526;50.948;6.590;2024-01-25T09:28:29;12.10;99.90
74171;DHT22;62526;50.948;6.590;2024-01-25T09:30:56;11.70;99.90
74171;DHT22;62526;50.948;6.590;2024-01-25T09:33:24;11.70;99.90
74171;DHT22;62526;50.948;6.590;2024-01-25T09:35:51;11.60;99.90
74171;DHT22;62526;50.948;6.590;2024-01-25T09:38:18;11.50;99.90
74171;DHT22;62526;50.948;6.590;2024-01-25T09:40:45;11.60;99.90
74171;DHT22;62526;50.948;6.590;2024-01-25T09:43:12;11.80;99.90
74171;DHT22;62526;50.948;6.590;2024-01-25T09:45:39;11.70;99.90
74171;DHT22;62526;50.948;6.590;2024-01-25T09:48:06;11.70;99.90
74171;DHT22;62526;50.948;6.590;2024-01-25T09:50:33;11.70;99.90
74171;DHT22;62526;50.948;6.590;2024-01-25T09:53:00;11.80;99.90
74171;DHT22;62526;50.948;6.590;2024-01-25T09:55:28;11.90;99.90
74171;DHT22;62526;50.948;6.590;2024-01-25T09:57:55;12.10;99.90
74171;DHT22;62526;50.948;6.590;2024-01-25T10:00:23;12.30;99.90
74171;DHT22;62526;50.948;6.590;2024-01-25T10:02:49;12.40;99.90
74171;DHT22;62526;50.948;6.590;2024-01-25T10:05:17;12.60;99.90
74171;DHT22;62526;50.948;6.590;2024-01-25T10:07:44;12.80;99.90
74171;DHT22;62526;50.948;6.590;2024-01-25T10:10:11;13.00;99.90
74171;DHT22;62526;50.948;6.590;2024-01-25T10:12:37;12.90;99.90
74171;DHT22;62526;50.948;6.590;2024-01-25T10:15:04;12.90;99.90
74171;DHT22;62526;50.948;6.590;2024-01-25T10:17:31;13.00;99.90
74171;DHT22;62526;50.948;6.590;2024-01-25T10:19:58;13.10;99.90
74171;DHT22;62526;50.948;6.590;2024-01-25T10:22:25;13.10;99.90
74171;DHT22;62526;50.948;6.590;2024-01-25T10:24:51;13.20;99.90
74171;DHT22;62526;50.948;6.590;2024-01-25T10:27:18;13.20;99.90
74171;DHT22;62526;50.948;6.590;2024-01-25T10:29:45;13.20;99.90
74171;DHT22;62526;50.948;6.590;2024-01-25T10:32:12;13.20;99.90
74171;DHT22;62526;50.948;6.590;2024-01-25T10:34:38;13.40;99.90
74171;DHT22;62526;50.948;6.590;2024-01-25T10:37:06;13.40;99.90
74171;DHT22;62526;50.948;6.590;2024-01-25T10:39:32;13.50;99.90
74171;DHT22;62526;50.948;6.590;2024-01-25T10:41:59;13.60;99.90
74171;DHT22;62526;50.948;6.590;2024-01-25T10:44:26;13.50;99.90
74171;DHT22;62526;50.948;6.590;2024-01-25T10:46:53;13.50;99.90
74171;DHT22;62526;50.948;6.590;2024-01-25T10:49:20;13.60;99.90
74171;DHT22;62526;50.948;6.590;2024-01-25T10:51:47;13.60;99.90
74171;DHT22;62526;50.948;6.590;2024-01-25T10:54:14;13.60;99.90
74171;DHT22;62526;50.948;6.590;2024-01-25T10:56:41;13.70;99.90
74171;DHT22;62526;50.948;6.590;2024-01-25T10:59:08;13.70;99.90
74171;DHT22;62526;50.948;6.590;2024-01-25T11:01:34;13.60;99.90
74171;DHT22;62526;50.948;6.590;2024-01-25T11:04:02;13.80;99.90
74171;DHT22;62526;50.948;6.590;2024-01-25T11:06:30;13.90;99.90
74171;DHT22;62526;50.948;6.590;2024-01-25T11:09:04;14.10;99.90
74171;DHT22;62526;50.948;6.590;2024-01-25T11:11:30;14.20;99.90
74171;DHT22;62526;50.948;6.590;2024-01-25T11:13:56;14.30;99.80
74171;DHT22;62526;50.948;6.590;2024-01-25T11:16:28;14.40;99.90
74171;DHT22;62526;50.948;6.590;2024-01-25T11:18:55;14.60;99.90
74171;DHT22;62526;50.948;6.590;2024-01-25T11:21:26;14.70;99.20
74171;DHT22;62526;50.948;6.590;2024-01-25T11:23:59;14.70;99.20
74171;DHT22;62526;50.948;6.590;2024-01-25T11:26:25;14.80;98.80
74171;DHT22;62526;50.948;6.590;2024-01-25T11:28:54;14.60;99.20
74171;DHT22;62526;50.948;6.590;2024-01-25T11:31:21;14.90;99.20
74171;DHT22;62526;50.948;6.590;2024-01-25T11:33:48;15.00;99.40
74171;DHT22;62526;50.948;6.590;2024-01-25T11:36:19;15.30;98.70
74171;DHT22;62526;50.948;6.590;2024-01-25T11:38:43;15.30;98.00
74171;DHT22;62526;50.948;6.590;2024-01-25T11:41:10;15.20;98.00
74171;DHT22;62526;50.948;6.590;2024-01-25T11:43:37;15.20;98.20
74171;DHT22;62526;50.948;6.590;2024-01-25T11:46:04;15.30;98.00
74171;DHT22;62526;50.948;6.590;2024-01-25T11:48:32;15.30;97.80
74171;DHT22;62526;50.948;6.590;2024-01-25T11:50:59;15.20;97.30
74171;DHT22;62526;50.948;6.590;2024-01-25T11:53:25;15.30;97.20
74171;DHT22;62526;50.948;6.590;2024-01-25T11:55:52;15.40;97.30
74171;DHT22;62526;50.948;6.590;2024-01-25T11:58:19;15.50;97.10
74171;DHT22;62526;50.948;6.590;2024-01-25T12:00:46;15.60;97.20
74171;DHT22;62526;50.948;6.590;2024-01-25T12:03:13;15.70;96.80
74171;DHT22;62526;50.948;6.590;2024-01-25T12:05:40;15.90;96.80
74171;DHT22;62526;50.948;6.590;2024-01-25T12:08:09;16.10;96.90
74171;DHT22;62526;50.948;6.590;2024-01-25T12:10:35;16.20;96.10
74171;DHT22;62526;50.948;6.590;2024-01-25T12:13:02;16.20;95.40
74171;DHT22;62526;50.948;6.590;2024-01-25T12:15:31;16.10;95.40
74171;DHT22;62526;50.948;6.590;2024-01-25T12:17:56;16.10;95.10
74171;DHT22;62526;50.948;6.590;2024-01-25T12:20:23;16.20;95.10
74171;DHT22;62526;50.948;6.590;2024-01-25T12:22:50;16.30;95.20
74171;DHT22;62526;50.948;6.590;2024-01-25T12:25:17;16.10;94.50
74171;DHT22;62526;50.948;6.590;2024-01-25T12:27:43;15.90;94.70
74171;DHT22;62526;50.948;6.590;2024-01-25T12:30:12;16.00;95.10
74171;DHT22;62526;50.948;6.590;2024-01-25T12:32:39;16.20;94.80
74171;DHT22;62526;50.948;6.590;2024-01-25T12:35:06;16.30;94.70
74171;DHT22;62526;50.948;6.590;2024-01-25T12:37:33;16.50;94.00
74171;DHT22;62526;50.948;6.590;2024-01-25T12:40:00;16.40;93.70
74171;DHT22;62526;50.948;6.590;2024-01-25T12:42:28;16.40;93.50
74171;DHT22;62526;50.948;6.590;2024-01-25T12:44:55;16.50;93.60
74171;DHT22;62526;50.948;6.590;2024-01-25T12:47:22;16.60;93.80
74171;DHT22;62526;50.948;6.590;2024-01-25T12:49:50;16.70;93.70
74171;DHT22;62526;50.948;6.590;2024-01-25T12:52:17;16.70;93.40
74171;DHT22;62526;50.948;6.590;2024-01-25T12:54:45;16.80;94.10
74171;DHT22;62526;50.948;6.590;2024-01-25T12:57:12;16.90;94.70
74171;DHT22;62526;50.948;6.590;2024-01-25T12:59:39;16.90;94.00
74171;DHT22;62526;50.948;6.590;2024-01-25T13:02:06;16.90;94.00
74171;DHT22;62526;50.948;6.590;2024-01-25T13:04:35;16.90;94.10
74171;DHT22;62526;50.948;6.590;2024-01-25T13:07:02;17.00;93.90
74171;DHT22;62526;50.948;6.590;2024-01-25T13:09:31;17.00;93.80
74171;DHT22;62526;50.948;6.590;2024-01-25T13:11:57;17.00;93.60
74171;DHT22;62526;50.948;6.590;2024-01-25T13:14:25;17.10;93.30
74171;DHT22;62526;50.948;6.590;2024-01-25T13:16:52;16.90;93.30
74171;DHT22;62526;50.948;6.590;2024-01-25T13:19:19;16.90;93.50
74171;DHT22;62526;50.948;6.590;2024-01-25T13:21:46;16.90;93.60
74171;DHT22;62526;50.948;6.590;2024-01-25T13:24:13;16.90;93.60
74171;DHT22;62526;50.948;6.590;2024-01-25T13:26:40;16.80;93.50
74171;DHT22;62526;50.948;6.590;2024-01-25T13:29:07;16.80;93.80
74171;DHT22;62526;50.948;6.590;2024-01-25T13:31:34;16.80;93.40
74171;DHT22;62526;50.948;6.590;2024-01-25T13:34:00;16.80;93.30
74171;DHT22;62526;50.948;6.590;2024-01-25T13:36:28;16.80;93.90
74171;DHT22;62526;50.948;6.590;2024-01-25T13:38:54;16.80;93.30
74171;DHT22;62526;50.948;6.590;2024-01-25T13:41:21;16.80;93.10
74171;DHT22;62526;50.948;6.590;2024-01-25T13:43:48;16.80;92.80
74171;DHT22;62526;50.948;6.590;2024-01-25T13:46:15;16.80;92.70
74171;DHT22;62526;50.948;6.590;2024-01-25T13:48:42;16.80;92.20
74171;DHT22;62526;50.948;6.590;2024-01-25T13:51:09;16.60;92.30
74171;DHT22;62526;50.948;6.590;2024-01-25T13:53:35;16.60;92.40
74171;DHT22;62526;50.948;6.590;2024-01-25T13:56:03;16.60;92.70
74171;DHT22;62526;50.948;6.590;2024-01-25T13:58:29;16.60;92.90
74171;DHT22;62526;50.948;6.590;2024-01-25T14:00:56;16.60;92.90
74171;DHT22;62526;50.948;6.590;2024-01-25T14:03:23;17.20;91.90
74171;DHT22;62526;50.948;6.590;2024-01-25T14:05:50;16.60;92.60
74171;DHT22;62526;50.948;6.590;2024-01-25T14:08:17;16.60;92.30
74171;DHT22;62526;50.948;6.590;2024-01-25T14:10:44;16.50;92.50
74171;DHT22;62526;50.948;6.590;2024-01-25T14:13:11;16.40;92.40
74171;DHT22;62526;50.948;6.590;2024-01-25T14:15:38;16.40;92.40
74171;DHT22;62526;50.948;6.590;2024-01-25T14:18:05;16.30;92.40
74171;DHT22;62526;50.948;6.590;2024-01-25T14:20:32;16.30;92.20
74171;DHT22;62526;50.948;6.590;2024-01-25T14:22:59;16.30;92.10
74171;DHT22;62526;50.948;6.590;2024-01-25T14:25:27;16.30;92.10
74171;DHT22;62526;50.948;6.590;2024-01-25T14:27:54;16.30;92.00
74171;DHT22;62526;50.948;6.590;2024-01-25T14:30:21;16.30;91.90
74171;DHT22;62526;50.948;6.590;2024-01-25T14:32:48;16.20;92.10
74171;DHT22;62526;50.948;6.590;2024-01-25T14:35:15;16.10;92.20
74171;DHT22;62526;50.948;6.590;2024-01-25T14:37:42;16.00;92.70
74171;DHT22;62526;50.948;6.590;2024-01-25T14:40:10;16.00;93.10
74171;DHT22;62526;50.948;6.590;2024-01-25T14:42:36;15.90;93.00
74171;DHT22;62526;50.948;6.590;2024-01-25T14:45:04;15.90;93.20
74171;DHT22;62526;50.948;6.590;2024-01-25T14:47:31;15.90;93.30
74171;DHT22;62526;50.948;6.590;2024-01-25T14:49:57;15.90;93.40
74171;DHT22;62526;50.948;6.590;2024-01-25T14:52:25;15.90;93.40
74171;DHT22;62526;50.948;6.590;2024-01-25T14:54:52;15.80;93.60
74171;DHT22;62526;50.948;6.590;2024-01-25T14:57:19;15.80;94.00
74171;DHT22;62526;50.948;6.590;2024-01-25T14:59:46;15.80;94.40
74171;DHT22;62526;50.948;6.590;2024-01-25T15:02:13;15.80;94.60
74171;DHT22;62526;50.948;6.590;2024-01-25T15:04:40;15.70;95.00
74171;DHT22;62526;50.948;6.590;2024-01-25T15:07:06;15.60;95.10
74171;DHT22;62526;50.948;6.590;2024-01-25T15:09:34;15.60;95.30
74171;DHT22;62526;50.948;6.590;2024-01-25T15:12:00;15.60;95.40
74171;DHT22;62526;50.948;6.590;2024-01-25T15:14:27;15.60;94.60
74171;DHT22;62526;50.948;6.590;2024-01-25T15:16:54;15.50;94.60
74171;DHT22;62526;50.948;6.590;2024-01-25T15:19:21;15.40;94.40
74171;DHT22;62526;50.948;6.590;2024-01-25T15:21:48;15.50;94.80
74171;DHT22;62526;50.948;6.590;2024-01-25T15:24:15;15.50;94.80
74171;DHT22;62526;50.948;6.590;2024-01-25T15:26:42;15.40;94.40
74171;DHT22;62526;50.948;6.590;2024-01-25T15:29:09;15.30;94.20